TimeCST,TemperatureF,Dew PointF,Humidity,Sea Level PressureIn,VisibilityMPH,Wind Direction,Wind SpeedMPH,Gust SpeedMPH,PrecipitationIn,Events,Conditions,WindDirDegrees,DateUTC
12:53 AM,26.1,21.9,84,29.71,5.0,SE,5.8,-,N/A,,Overcast,140,2012-12-18 06:53:00
1:19 AM,26.6,23.0,86,29.67,5.0,SE,8.1,-,N/A,,Overcast,140,2012-12-18 07:19:00
1:43 AM,26.6,21.2,80,29.66,5.0,SE,5.8,-,N/A,,Overcast,130,2012-12-18 07:43:00
1:53 AM,26.1,23.0,88,29.69,5.0,SE,6.9,-,N/A,,Overcast,140,2012-12-18 07:53:00
2:53 AM,26.1,24.1,92,29.67,4.0,ESE,8.1,-,N/A,,Overcast,120,2012-12-18 08:53:00
3:07 AM,26.6,24.8,93,29.65,4.0,SE,9.2,-,N/A,,Overcast,140,2012-12-18 09:07:00
3:14 AM,26.6,24.8,93,29.64,4.0,SE,6.9,-,N/A,,Overcast,140,2012-12-18 09:14:00
3:53 AM,27.0,24.1,89,29.66,3.0,ESE,10.4,-,N/A,,Overcast,120,2012-12-18 09:53:00
4:53 AM,26.1,24.1,92,29.63,3.0,ESE,11.5,-,N/A,,Overcast,110,2012-12-18 10:53:00
5:48 AM,26.6,24.8,93,29.58,4.0,ESE,12.7,-,N/A,,Overcast,110,2012-12-18 11:48:00
5:53 AM,27.0,24.1,89,29.60,4.0,East,12.7,-,N/A,,Overcast,100,2012-12-18 11:53:00
6:19 AM,26.6,24.8,93,29.58,4.0,ESE,10.4,-,N/A,,Overcast,120,2012-12-18 12:19:00
6:53 AM,27.0,24.1,89,29.60,4.0,ESE,12.7,-,N/A,,Overcast,110,2012-12-18 12:53:00
7:01 AM,26.6,24.8,93,29.56,1.8,East,11.5,-,0.00,Snow,Light Snow,100,2012-12-18 13:01:00
7:08 AM,26.6,24.8,93,29.55,1.0,East,13.8,-,0.00,Snow,Light Snow,90,2012-12-18 13:08:00
7:17 AM,26.6,24.8,93,29.55,1.2,East,12.7,-,0.00,Snow,Light Snow,90,2012-12-18 13:17:00
7:24 AM,26.6,24.8,93,29.55,2.5,East,13.8,-,0.00,Snow,Light Snow,100,2012-12-18 13:24:00
7:32 AM,26.6,24.8,93,29.55,3.0,East,12.7,-,0.00,,Overcast,100,2012-12-18 13:32:00
7:43 AM,28.4,24.8,86,29.55,4.0,East,10.4,-,0.00,,Overcast,100,2012-12-18 13:43:00
7:53 AM,28.0,25.0,88,29.57,4.0,East,12.7,-,0.00,,Overcast,100,2012-12-18 13:53:00
8:10 AM,28.4,24.8,86,29.55,2.5,ESE,11.5,-,N/A,,Overcast,110,2012-12-18 14:10:00
8:19 AM,28.4,24.8,86,29.55,3.0,East,11.5,-,N/A,,Overcast,100,2012-12-18 14:19:00
8:53 AM,28.9,26.1,89,29.59,3.0,ENE,9.2,-,N/A,,Overcast,70,2012-12-18 14:53:00
9:27 AM,28.4,26.6,93,29.57,2.5,ENE,9.2,-,N/A,,Overcast,70,2012-12-18 15:27:00
9:53 AM,28.9,26.1,89,29.60,1.0,NE,10.4,-,0.01,Snow,Light Snow,50,2012-12-18 15:53:00
10:31 AM,28.4,26.6,93,29.58,0.8,NE,10.4,-,0.03,Snow,Light Snow,50,2012-12-18 16:31:00
10:41 AM,28.4,26.6,93,29.57,1.0,NE,15.0,-,0.03,Snow,Light Snow,50,2012-12-18 16:41:00
10:53 AM,28.9,26.1,89,29.60,1.5,NE,13.8,-,0.03,Snow,Light Snow,50,2012-12-18 16:53:00
11:09 AM,28.4,26.6,93,29.58,2.0,NE,13.8,-,0.00,,Overcast,40,2012-12-18 17:09:00
11:53 AM,30.0,26.1,85,29.62,2.0,NE,10.4,-,0.00,Snow,Light Snow,40,2012-12-18 17:53:00
12:25 PM,30.2,26.6,86,29.60,3.0,NE,9.2,-,0.00,,Overcast,40,2012-12-18 18:25:00
12:40 PM,30.2,26.6,86,29.61,3.0,NE,8.1,-,0.00,,Overcast,50,2012-12-18 18:40:00
12:53 PM,30.9,27.0,85,29.63,3.0,NE,5.8,-,0.00,,Overcast,50,2012-12-18 18:53:00
1:38 PM,32.0,26.6,80,29.62,3.0,NNE,5.8,-,N/A,,Haze,20,2012-12-18 19:38:00
1:53 PM,32.0,27.0,82,29.66,3.0,North,6.9,-,N/A,,Haze,10,2012-12-18 19:53:00
2:53 PM,30.0,26.1,85,29.69,3.0,North,11.5,-,N/A,,Overcast,350,2012-12-18 20:53:00
3:53 PM,30.0,25.0,82,29.72,3.0,North,9.2,-,N/A,,Haze,350,2012-12-18 21:53:00
4:53 PM,30.0,25.0,82,29.77,4.0,NW,5.8,-,N/A,,Haze,310,2012-12-18 22:53:00
5:34 PM,30.2,26.6,86,29.76,4.0,WNW,6.9,-,N/A,,Overcast,290,2012-12-18 23:34:00
5:53 PM,30.0,26.1,85,29.79,4.0,NW,4.6,-,N/A,,Overcast,320,2012-12-18 23:53:00
6:53 PM,30.0,26.1,85,29.81,4.0,WNW,3.5,-,N/A,,Overcast,300,2012-12-19 00:53:00
7:53 PM,30.0,26.1,85,29.83,4.0,WSW,3.5,-,N/A,,Overcast,240,2012-12-19 01:53:00
8:53 PM,30.0,26.1,85,29.86,4.0,WSW,6.9,-,N/A,,Overcast,250,2012-12-19 02:53:00
9:01 PM,30.2,26.6,86,29.83,4.0,WSW,6.9,-,N/A,,Overcast,240,2012-12-19 03:01:00
9:17 PM,30.2,26.6,86,29.83,4.0,WSW,8.1,-,N/A,,Overcast,240,2012-12-19 03:17:00
9:36 PM,30.2,26.6,86,29.83,4.0,WSW,9.2,-,N/A,,Overcast,240,2012-12-19 03:36:00
9:53 PM,30.0,27.0,88,29.86,4.0,WSW,9.2,-,N/A,,Overcast,240,2012-12-19 03:53:00
10:41 PM,30.2,26.6,86,29.85,4.0,SW,8.1,-,N/A,,Overcast,230,2012-12-19 04:41:00
10:53 PM,30.9,28.0,89,29.88,4.0,SW,6.9,-,N/A,,Overcast,220,2012-12-19 04:53:00
11:50 PM,32.0,28.4,87,29.86,6.0,West,12.7,18.4,N/A,,Overcast,270,2012-12-19 05:50:00
11:53 PM,32.0,28.0,85,29.88,6.0,West,13.8,-,N/A,,Overcast,270,2012-12-19 05:53:00